sensor_id;sensor_type;location;lat;lon;timestamp;pressure;altitude;pressure_sealevel;temperature
64916;BMP280;51427;-27.442;153.014;2022-08-21T00:01:30;102253.88;;;25.05
64916;BMP280;51427;-27.442;153.014;2022-08-21T00:03:58;102248.09;;;25.88
64916;BMP280;51427;-27.442;153.014;2022-08-21T00:06:25;102249.50;;;23.67
64916;BMP280;51427;-27.442;153.014;2022-08-21T00:08:52;102262.69;;;24.69
64916;BMP280;51427;-27.442;153.014;2022-08-21T00:11:19;102243.03;;;24.89
64916;BMP280;51427;-27.442;153.014;2022-08-21T00:13:47;102255.75;;;23.85
64916;BMP280;51427;-27.442;153.014;2022-08-21T00:16:14;102243.25;;;24.78
64916;BMP280;51427;-27.442;153.014;2022-08-21T00:18:41;102237.75;;;24.53
64916;BMP280;51427;-27.442;153.014;2022-08-21T00:21:10;102259.78;;;23.70
64916;BMP280;51427;-27.442;153.014;2022-08-21T00:23:38;102244.31;;;23.94
64916;BMP280;51427;-27.442;153.014;2022-08-21T00:26:05;102227.13;;;24.17
64916;BMP280;51427;-27.442;153.014;2022-08-21T00:28:33;102238.19;;;23.65
64916;BMP280;51427;-27.442;153.014;2022-08-21T00:31:01;102237.00;;;23.02
64916;BMP280;51427;-27.442;153.014;2022-08-21T00:33:30;102240.69;;;23.58
64916;BMP280;51427;-27.442;153.014;2022-08-21T00:35:57;102238.72;;;23.60
64916;BMP280;51427;-27.442;153.014;2022-08-21T00:38:25;102236.38;;;23.94
64916;BMP280;51427;-27.442;153.014;2022-08-21T00:40:56;102223.03;;;23.67
64916;BMP280;51427;-27.442;153.014;2022-08-21T00:43:29;102224.38;;;23.62
64916;BMP280;51427;-27.442;153.014;2022-08-21T00:45:57;102243.00;;;22.45
64916;BMP280;51427;-27.442;153.014;2022-08-21T00:48:25;102235.56;;;22.59
64916;BMP280;51427;-27.442;153.014;2022-08-21T00:53:34;102237.94;;;23.01
64916;BMP280;51427;-27.442;153.014;2022-08-21T00:56:04;102230.25;;;24.49
64916;BMP280;51427;-27.442;153.014;2022-08-21T00:58:33;102206.53;;;24.02
64916;BMP280;51427;-27.442;153.014;2022-08-21T01:01:03;102205.66;;;25.09
64916;BMP280;51427;-27.442;153.014;2022-08-21T01:03:31;102207.13;;;23.77
64916;BMP280;51427;-27.442;153.014;2022-08-21T01:05:58;102213.78;;;23.81
64916;BMP280;51427;-27.442;153.014;2022-08-21T01:08:26;102212.94;;;23.99
64916;BMP280;51427;-27.442;153.014;2022-08-21T01:10:56;102225.06;;;24.57
64916;BMP280;51427;-27.442;153.014;2022-08-21T01:13:23;102192.56;;;25.77
64916;BMP280;51427;-27.442;153.014;2022-08-21T01:15:54;102186.06;;;25.97
64916;BMP280;51427;-27.442;153.014;2022-08-21T01:18:22;102198.13;;;22.93
64916;BMP280;51427;-27.442;153.014;2022-08-21T01:23:56;102198.78;;;22.86
64916;BMP280;51427;-27.442;153.014;2022-08-21T01:26:28;102200.97;;;22.42
64916;BMP280;51427;-27.442;153.014;2022-08-21T01:32:10;102183.69;;;23.54
64916;BMP280;51427;-27.442;153.014;2022-08-21T01:34:40;102202.88;;;22.99
64916;BMP280;51427;-27.442;153.014;2022-08-21T01:37:08;102191.91;;;22.74
64916;BMP280;51427;-27.442;153.014;2022-08-21T01:39:36;102186.47;;;23.15
64916;BMP280;51427;-27.442;153.014;2022-08-21T01:42:04;102175.88;;;23.43
64916;BMP280;51427;-27.442;153.014;2022-08-21T01:44:32;102183.97;;;23.41
64916;BMP280;51427;-27.442;153.014;2022-08-21T01:47:02;102182.75;;;22.19
64916;BMP280;51427;-27.442;153.014;2022-08-21T01:49:30;102182.78;;;22.87
64916;BMP280;51427;-27.442;153.014;2022-08-21T01:51:57;102182.59;;;23.37
64916;BMP280;51427;-27.442;153.014;2022-08-21T01:54:25;102178.69;;;23.60
64916;BMP280;51427;-27.442;153.014;2022-08-21T01:56:53;102187.03;;;23.74
64916;BMP280;51427;-27.442;153.014;2022-08-21T01:59:23;102198.09;;;24.25
64916;BMP280;51427;-27.442;153.014;2022-08-21T02:01:50;102185.06;;;23.86
64916;BMP280;51427;-27.442;153.014;2022-08-21T02:04:18;102173.50;;;24.42
64916;BMP280;51427;-27.442;153.014;2022-08-21T02:06:46;102191.75;;;22.96
64916;BMP280;51427;-27.442;153.014;2022-08-21T02:09:13;102179.50;;;23.61
64916;BMP280;51427;-27.442;153.014;2022-08-21T02:11:41;102171.72;;;23.59
64916;BMP280;51427;-27.442;153.014;2022-08-21T02:14:13;102164.22;;;23.36
64916;BMP280;51427;-27.442;153.014;2022-08-21T02:16:42;102170.25;;;22.89
64916;BMP280;51427;-27.442;153.014;2022-08-21T02:19:11;102174.13;;;22.76
64916;BMP280;51427;-27.442;153.014;2022-08-21T02:21:39;102167.78;;;22.19
64916;BMP280;51427;-27.442;153.014;2022-08-21T02:24:06;102163.38;;;23.45
64916;BMP280;51427;-27.442;153.014;2022-08-21T02:26:34;102155.28;;;23.65
64916;BMP280;51427;-27.442;153.014;2022-08-21T02:29:03;102170.41;;;25.00
64916;BMP280;51427;-27.442;153.014;2022-08-21T02:31:31;102152.81;;;24.45
64916;BMP280;51427;-27.442;153.014;2022-08-21T02:33:59;102144.50;;;24.67
64916;BMP280;51427;-27.442;153.014;2022-08-21T02:36:26;102147.72;;;23.79
64916;BMP280;51427;-27.442;153.014;2022-08-21T02:38:53;102148.06;;;23.39
64916;BMP280;51427;-27.442;153.014;2022-08-21T02:41:21;102143.13;;;23.62
64916;BMP280;51427;-27.442;153.014;2022-08-21T02:43:50;102160.44;;;22.62
64916;BMP280;51427;-27.442;153.014;2022-08-21T02:46:19;102145.25;;;22.93
64916;BMP280;51427;-27.442;153.014;2022-08-21T02:48:47;102161.28;;;23.39
64916;BMP280;51427;-27.442;153.014;2022-08-21T02:51:17;102155.00;;;23.02
64916;BMP280;51427;-27.442;153.014;2022-08-21T02:53:46;102136.06;;;24.71
64916;BMP280;51427;-27.442;153.014;2022-08-21T02:56:16;102149.97;;;22.99
64916;BMP280;51427;-27.442;153.014;2022-08-21T02:58:47;102136.34;;;23.13
64916;BMP280;51427;-27.442;153.014;2022-08-21T03:01:15;102125.22;;;23.66
64916;BMP280;51427;-27.442;153.014;2022-08-21T03:03:44;102134.97;;;23.28
64916;BMP280;51427;-27.442;153.014;2022-08-21T03:06:13;102123.66;;;23.45
64916;BMP280;51427;-27.442;153.014;2022-08-21T03:08:42;102137.78;;;22.29
64916;BMP280;51427;-27.442;153.014;2022-08-21T03:11:12;102123.25;;;23.30
64916;BMP280;51427;-27.442;153.014;2022-08-21T03:13:39;102131.56;;;24.55
64916;BMP280;51427;-27.442;153.014;2022-08-21T03:16:07;102133.88;;;24.40
64916;BMP280;51427;-27.442;153.014;2022-08-21T03:18:34;102113.69;;;25.35
64916;BMP280;51427;-27.442;153.014;2022-08-21T03:21:02;102128.22;;;24.53
64916;BMP280;51427;-27.442;153.014;2022-08-21T03:23:30;102130.31;;;25.20
64916;BMP280;51427;-27.442;153.014;2022-08-21T03:25:57;102139.97;;;23.40
64916;BMP280;51427;-27.442;153.014;2022-08-21T03:28:24;102094.13;;;25.36
64916;BMP280;51427;-27.442;153.014;2022-08-21T03:30:52;102110.72;;;23.04
64916;BMP280;51427;-27.442;153.014;2022-08-21T03:33:21;102114.78;;;23.08
64916;BMP280;51427;-27.442;153.014;2022-08-21T03:36:00;102128.25;;;24.16
64916;BMP280;51427;-27.442;153.014;2022-08-21T03:38:30;102119.59;;;23.60
64916;BMP280;51427;-27.442;153.014;2022-08-21T03:40:59;102087.69;;;23.61
64916;BMP280;51427;-27.442;153.014;2022-08-21T03:43:27;102089.63;;;24.67
64916;BMP280;51427;-27.442;153.014;2022-08-21T03:45:54;102095.16;;;23.20
64916;BMP280;51427;-27.442;153.014;2022-08-21T03:48:22;102082.28;;;23.44
64916;BMP280;51427;-27.442;153.014;2022-08-21T03:50:52;102090.69;;;23.20
64916;BMP280;51427;-27.442;153.014;2022-08-21T03:53:20;102078.91;;;23.70
64916;BMP280;51427;-27.442;153.014;2022-08-21T03:55:49;102072.19;;;23.85
64916;BMP280;51427;-27.442;153.014;2022-08-21T03:58:20;102081.72;;;23.68
64916;BMP280;51427;-27.442;153.014;2022-08-21T04:00:51;102087.84;;;22.84
64916;BMP280;51427;-27.442;153.014;2022-08-21T04:03:18;102081.16;;;23.56
64916;BMP280;51427;-27.442;153.014;2022-08-21T04:05:46;102081.50;;;22.96
64916;BMP280;51427;-27.442;153.014;2022-08-21T04:08:15;102097.88;;;23.56
64916;BMP280;51427;-27.442;153.014;2022-08-21T04:10:46;102105.44;;;23.04
64916;BMP280;51427;-27.442;153.014;2022-08-21T04:13:14;102109.59;;;23.25
64916;BMP280;51427;-27.442;153.014;2022-08-21T04:15:42;102099.34;;;24.23
64916;BMP280;51427;-27.442;153.014;2022-08-21T04:18:09;102103.72;;;23.78
64916;BMP280;51427;-27.442;153.014;2022-08-21T04:20:36;102102.97;;;23.86
64916;BMP280;51427;-27.442;153.014;2022-08-21T04:23:04;102092.06;;;24.78
64916;BMP280;51427;-27.442;153.014;2022-08-21T04:25:31;102100.69;;;24.63
64916;BMP280;51427;-27.442;153.014;2022-08-21T04:27:58;102097.91;;;24.38
64916;BMP280;51427;-27.442;153.014;2022-08-21T04:30:26;102104.88;;;23.29
64916;BMP280;51427;-27.442;153.014;2022-08-21T04:32:53;102117.31;;;22.61
64916;BMP280;51427;-27.442;153.014;2022-08-21T04:35:22;102105.91;;;22.61
64916;BMP280;51427;-27.442;153.014;2022-08-21T04:37:50;102100.94;;;22.28
64916;BMP280;51427;-27.442;153.014;2022-08-21T04:40:19;102105.13;;;22.88
64916;BMP280;51427;-27.442;153.014;2022-08-21T04:42:54;102104.19;;;23.08
64916;BMP280;51427;-27.442;153.014;2022-08-21T04:45:23;102128.94;;;22.40
64916;BMP280;51427;-27.442;153.014;2022-08-21T04:47:57;102118.63;;;22.85
64916;BMP280;51427;-27.442;153.014;2022-08-21T04:50:34;102117.66;;;23.43
64916;BMP280;51427;-27.442;153.014;2022-08-21T04:53:03;102116.00;;;23.42
64916;BMP280;51427;-27.442;153.014;2022-08-21T04:55:30;102130.44;;;22.81
64916;BMP280;51427;-27.442;153.014;2022-08-21T04:57:59;102121.31;;;23.14
64916;BMP280;51427;-27.442;153.014;2022-08-21T05:00:27;102133.53;;;23.62
64916;BMP280;51427;-27.442;153.014;2022-08-21T05:02:56;102134.38;;;23.24
64916;BMP280;51427;-27.442;153.014;2022-08-21T05:05:25;102112.63;;;22.25
64916;BMP280;51427;-27.442;153.014;2022-08-21T05:07:56;102113.72;;;22.62
64916;BMP280;51427;-27.442;153.014;2022-08-21T05:10:23;102125.19;;;22.42
64916;BMP280;51427;-27.442;153.014;2022-08-21T05:12:52;102120.09;;;22.60
64916;BMP280;51427;-27.442;153.014;2022-08-21T05:15:19;102118.25;;;22.99
64916;BMP280;51427;-27.442;153.014;2022-08-21T05:17:47;102119.91;;;23.28
64916;BMP280;51427;-27.442;153.014;2022-08-21T05:20:14;102111.50;;;22.86
64916;BMP280;51427;-27.442;153.014;2022-08-21T05:22:42;102117.16;;;23.11
64916;BMP280;51427;-27.442;153.014;2022-08-21T05:25:10;102118.97;;;22.53
64916;BMP280;51427;-27.442;153.014;2022-08-21T05:27:38;102107.94;;;23.34
64916;BMP280;51427;-27.442;153.014;2022-08-21T05:30:07;102119.91;;;23.28
64916;BMP280;51427;-27.442;153.014;2022-08-21T05:32:36;102114.88;;;23.72
64916;BMP280;51427;-27.442;153.014;2022-08-21T05:35:08;102120.19;;;22.97
64916;BMP280;51427;-27.442;153.014;2022-08-21T05:37:35;102129.34;;;22.06
64916;BMP280;51427;-27.442;153.014;2022-08-21T05:40:04;102112.47;;;22.75
64916;BMP280;51427;-27.442;153.014;2022-08-21T05:42:33;102116.50;;;22.70
64916;BMP280;51427;-27.442;153.014;2022-08-21T05:45:00;102116.53;;;22.79
64916;BMP280;51427;-27.442;153.014;2022-08-21T05:47:27;102115.31;;;22.93
64916;BMP280;51427;-27.442;153.014;2022-08-21T05:49:54;102129.88;;;22.29
64916;BMP280;51427;-27.442;153.014;2022-08-21T05:52:28;102119.16;;;22.79
64916;BMP280;51427;-27.442;153.014;2022-08-21T05:54:55;102113.50;;;23.12
64916;BMP280;51427;-27.442;153.014;2022-08-21T05:57:22;102116.84;;;23.05
64916;BMP280;51427;-27.442;153.014;2022-08-21T05:59:52;102117.69;;;22.47
64916;BMP280;51427;-27.442;153.014;2022-08-21T06:02:20;102135.03;;;22.31
64916;BMP280;51427;-27.442;153.014;2022-08-21T06:04:48;102133.22;;;22.11
64916;BMP280;51427;-27.442;153.014;2022-08-21T06:07:16;102130.72;;;22.30
64916;BMP280;51427;-27.442;153.014;2022-08-21T06:09:43;102141.81;;;22.24
64916;BMP280;51427;-27.442;153.014;2022-08-21T06:12:12;102138.72;;;21.69
64916;BMP280;51427;-27.442;153.014;2022-08-21T06:14:41;102135.59;;;22.14
64916;BMP280;51427;-27.442;153.014;2022-08-21T06:17:10;102136.53;;;22.72
64916;BMP280;51427;-27.442;153.014;2022-08-21T06:19:38;102136.88;;;22.10
64916;BMP280;51427;-27.442;153.014;2022-08-21T06:22:06;102147.13;;;21.83
64916;BMP280;51427;-27.442;153.014;2022-08-21T06:24:34;102143.72;;;22.52
64916;BMP280;51427;-27.442;153.014;2022-08-21T06:27:06;102147.56;;;22.38
64916;BMP280;51427;-27.442;153.014;2022-08-21T06:29:34;102152.59;;;21.91
64916;BMP280;51427;-27.442;153.014;2022-08-21T06:32:03;102150.03;;;21.80
64916;BMP280;51427;-27.442;153.014;2022-08-21T06:34:30;102160.03;;;21.57
64916;BMP280;51427;-27.442;153.014;2022-08-21T06:36:58;102158.63;;;22.23
64916;BMP280;51427;-27.442;153.014;2022-08-21T06:39:25;102160.50;;;21.91
64916;BMP280;51427;-27.442;153.014;2022-08-21T06:41:52;102159.22;;;22.66
64916;BMP280;51427;-27.442;153.014;2022-08-21T06:44:19;102158.00;;;22.40
64916;BMP280;51427;-27.442;153.014;2022-08-21T06:46:46;102161.97;;;22.25
64916;BMP280;51427;-27.442;153.014;2022-08-21T06:49:14;102165.09;;;21.89
64916;BMP280;51427;-27.442;153.014;2022-08-21T06:51:41;102173.34;;;21.75
64916;BMP280;51427;-27.442;153.014;2022-08-21T06:54:09;102177.44;;;22.09
64916;BMP280;51427;-27.442;153.014;2022-08-21T06:56:37;102175.28;;;21.74
64916;BMP280;51427;-27.442;153.014;2022-08-21T06:59:05;102179.19;;;21.99
64916;BMP280;51427;-27.442;153.014;2022-08-21T07:01:32;102192.91;;;21.42
64916;BMP280;51427;-27.442;153.014;2022-08-21T07:03:59;102191.44;;;21.60
64916;BMP280;51427;-27.442;153.014;2022-08-21T07:06:27;102202.16;;;20.94
64916;BMP280;51427;-27.442;153.014;2022-08-21T07:08:54;102198.72;;;21.25
64916;BMP280;51427;-27.442;153.014;2022-08-21T07:11:23;102195.22;;;21.67
64916;BMP280;51427;-27.442;153.014;2022-08-21T07:13:51;102203.94;;;21.47
64916;BMP280;51427;-27.442;153.014;2022-08-21T07:16:23;102206.75;;;21.66
64916;BMP280;51427;-27.442;153.014;2022-08-21T07:18:50;102215.53;;;21.13
64916;BMP280;51427;-27.442;153.014;2022-08-21T07:21:18;102217.34;;;21.13
64916;BMP280;51427;-27.442;153.014;2022-08-21T07:23:48;102219.69;;;20.84
64916;BMP280;51427;-27.442;153.014;2022-08-21T07:26:18;102217.00;;;21.06
64916;BMP280;51427;-27.442;153.014;2022-08-21T07:28:48;102215.94;;;21.51
64916;BMP280;51427;-27.442;153.014;2022-08-21T07:31:18;102215.69;;;21.94
64916;BMP280;51427;-27.442;153.014;2022-08-21T07:33:46;102228.53;;;20.94
64916;BMP280;51427;-27.442;153.014;2022-08-21T07:36:13;102223.22;;;21.05
64916;BMP280;51427;-27.442;153.014;2022-08-21T07:38:41;102229.75;;;20.90
64916;BMP280;51427;-27.442;153.014;2022-08-21T07:41:18;102238.09;;;20.63
64916;BMP280;51427;-27.442;153.014;2022-08-21T07:43:47;102228.97;;;21.21
64916;BMP280;51427;-27.442;153.014;2022-08-21T07:46:15;102247.00;;;20.51
64916;BMP280;51427;-27.442;153.014;2022-08-21T07:48:42;102249.25;;;20.44
64916;BMP280;51427;-27.442;153.014;2022-08-21T07:51:12;102248.19;;;20.58
64916;BMP280;51427;-27.442;153.014;2022-08-21T07:53:40;102252.03;;;20.65
64916;BMP280;51427;-27.442;153.014;2022-08-21T07:56:08;102252.16;;;20.96
64916;BMP280;51427;-27.442;153.014;2022-08-21T07:58:37;102258.34;;;20.62
64916;BMP280;51427;-27.442;153.014;2022-08-21T08:01:05;102258.34;;;20.62
64916;BMP280;51427;-27.442;153.014;2022-08-21T08:03:33;102252.72;;;20.45
64916;BMP280;51427;-27.442;153.014;2022-08-21T08:06:01;102259.19;;;20.63
64916;BMP280;51427;-27.442;153.014;2022-08-21T08:08:31;102260.81;;;20.09
64916;BMP280;51427;-27.442;153.014;2022-08-21T08:10:59;102260.16;;;20.51
64916;BMP280;51427;-27.442;153.014;2022-08-21T08:13:26;102269.53;;;20.77
64916;BMP280;51427;-27.442;153.014;2022-08-21T08:15:54;102274.28;;;20.61
64916;BMP280;51427;-27.442;153.014;2022-08-21T08:18:21;102270.84;;;20.71
64916;BMP280;51427;-27.442;153.014;2022-08-21T08:20:48;102275.69;;;20.43
64916;BMP280;51427;-27.442;153.014;2022-08-21T08:23:16;102283.56;;;20.88
64916;BMP280;51427;-27.442;153.014;2022-08-21T08:25:43;102286.56;;;20.28
64916;BMP280;51427;-27.442;153.014;2022-08-21T08:28:10;102288.03;;;20.32
64916;BMP280;51427;-27.442;153.014;2022-08-21T08:30:38;102281.63;;;20.79
64916;BMP280;51427;-27.442;153.014;2022-08-21T08:33:05;102279.47;;;21.06
64916;BMP280;51427;-27.442;153.014;2022-08-21T08:35:32;102285.78;;;20.60
64916;BMP280;51427;-27.442;153.014;2022-08-21T08:37:59;102288.59;;;20.24
64916;BMP280;51427;-27.442;153.014;2022-08-21T08:43:07;102295.03;;;20.87
64916;BMP280;51427;-27.442;153.014;2022-08-21T08:45:37;102299.66;;;20.40
64916;BMP280;51427;-27.442;153.014;2022-08-21T08:48:08;102294.41;;;20.62
64916;BMP280;51427;-27.442;153.014;2022-08-21T08:50:47;102294.44;;;20.94
64916;BMP280;51427;-27.442;153.014;2022-08-21T08:53:27;102299.31;;;21.53
64916;BMP280;51427;-27.442;153.014;2022-08-21T08:55:58;102309.25;;;20.63
64916;BMP280;51427;-27.442;153.014;2022-08-21T08:58:31;102314.50;;;20.41
64916;BMP280;51427;-27.442;153.014;2022-08-21T09:00:59;102321.09;;;20.35
64916;BMP280;51427;-27.442;153.014;2022-08-21T09:03:27;102322.00;;;20.24
64916;BMP280;51427;-27.442;153.014;2022-08-21T09:14:42;102335.66;;;20.29
64916;BMP280;51427;-27.442;153.014;2022-08-21T09:25:32;102342.03;;;20.26
64916;BMP280;51427;-27.442;153.014;2022-08-21T09:28:01;102341.09;;;20.04
64916;BMP280;51427;-27.442;153.014;2022-08-21T09:30:32;102350.50;;;20.75
64916;BMP280;51427;-27.442;153.014;2022-08-21T09:32:59;102351.63;;;20.04
64916;BMP280;51427;-27.442;153.014;2022-08-21T09:35:27;102351.84;;;20.69
64916;BMP280;51427;-27.442;153.014;2022-08-21T09:38:00;102358.06;;;20.23
64916;BMP280;51427;-27.442;153.014;2022-08-21T09:43:18;102356.34;;;19.88
64916;BMP280;51427;-27.442;153.014;2022-08-21T09:45:47;102353.78;;;20.44
64916;BMP280;51427;-27.442;153.014;2022-08-21T09:48:20;102353.34;;;20.61
64916;BMP280;51427;-27.442;153.014;2022-08-21T09:50:48;102350.63;;;20.28
64916;BMP280;51427;-27.442;153.014;2022-08-21T09:53:26;102350.34;;;20.09
64916;BMP280;51427;-27.442;153.014;2022-08-21T09:55:57;102357.25;;;20.44
64916;BMP280;51427;-27.442;153.014;2022-08-21T09:58:47;102358.69;;;19.68
64916;BMP280;51427;-27.442;153.014;2022-08-21T10:01:19;102356.22;;;19.77
64916;BMP280;51427;-27.442;153.014;2022-08-21T10:03:47;102347.66;;;20.88
64916;BMP280;51427;-27.442;153.014;2022-08-21T10:06:27;102356.41;;;20.89
64916;BMP280;51427;-27.442;153.014;2022-08-21T10:09:11;102361.84;;;20.19
64916;BMP280;51427;-27.442;153.014;2022-08-21T10:11:40;102365.88;;;20.91
64916;BMP280;51427;-27.442;153.014;2022-08-21T10:17:13;102362.75;;;21.19
64916;BMP280;51427;-27.442;153.014;2022-08-21T10:25:44;102371.88;;;21.15
64916;BMP280;51427;-27.442;153.014;2022-08-21T10:47:12;102384.56;;;20.88
64916;BMP280;51427;-27.442;153.014;2022-08-21T10:50:00;102387.75;;;20.25
64916;BMP280;51427;-27.442;153.014;2022-08-21T10:55:17;102383.13;;;20.95
64916;BMP280;51427;-27.442;153.014;2022-08-21T10:57:58;102383.88;;;19.95
64916;BMP280;51427;-27.442;153.014;2022-08-21T11:00:56;102389.78;;;19.27
64916;BMP280;51427;-27.442;153.014;2022-08-21T11:03:42;102397.56;;;19.16
64916;BMP280;51427;-27.442;153.014;2022-08-21T11:06:27;102395.75;;;19.29
64916;BMP280;51427;-27.442;153.014;2022-08-21T11:09:04;102397.56;;;20.23
64916;BMP280;51427;-27.442;153.014;2022-08-21T11:11:44;102397.50;;;19.77
64916;BMP280;51427;-27.442;153.014;2022-08-21T11:17:14;102392.75;;;19.82
64916;BMP280;51427;-27.442;153.014;2022-08-21T11:19:45;102390.84;;;19.96
64916;BMP280;51427;-27.442;153.014;2022-08-21T11:22:28;102394.19;;;19.98
64916;BMP280;51427;-27.442;153.014;2022-08-21T11:28:13;102399.94;;;19.80
64916;BMP280;51427;-27.442;153.014;2022-08-21T11:39:35;102402.53;;;20.15
64916;BMP280;51427;-27.442;153.014;2022-08-21T11:50:29;102395.53;;;20.27
64916;BMP280;51427;-27.442;153.014;2022-08-21T11:54:05;102389.16;;;20.29
64916;BMP280;51427;-27.442;153.014;2022-08-21T11:58:59;102397.19;;;20.62
64916;BMP280;51427;-27.442;153.014;2022-08-21T12:01:36;102399.91;;;20.83
64916;BMP280;51427;-27.442;153.014;2022-08-21T12:04:15;102391.59;;;20.43
64916;BMP280;51427;-27.442;153.014;2022-08-21T12:06:43;102395.69;;;20.47
64916;BMP280;51427;-27.442;153.014;2022-08-21T12:12:12;102408.91;;;19.65
64916;BMP280;51427;-27.442;153.014;2022-08-21T12:14:43;102395.66;;;19.31
64916;BMP280;51427;-27.442;153.014;2022-08-21T12:17:24;102404.91;;;19.36
64916;BMP280;51427;-27.442;153.014;2022-08-21T12:23:02;102398.34;;;19.89
64916;BMP280;51427;-27.442;153.014;2022-08-21T12:25:42;102401.63;;;19.33
64916;BMP280;51427;-27.442;153.014;2022-08-21T12:28:12;102401.72;;;19.91
64916;BMP280;51427;-27.442;153.014;2022-08-21T12:30:43;102398.94;;;20.16
64916;BMP280;51427;-27.442;153.014;2022-08-21T12:33:32;102394.13;;;20.44
64916;BMP280;51427;-27.442;153.014;2022-08-21T12:36:15;102396.13;;;20.30
64916;BMP280;51427;-27.442;153.014;2022-08-21T12:41:25;102391.09;;;20.27
64916;BMP280;51427;-27.442;153.014;2022-08-21T12:43:59;102389.59;;;20.91
64916;BMP280;51427;-27.442;153.014;2022-08-21T12:46:36;102383.91;;;20.29
64916;BMP280;51427;-27.442;153.014;2022-08-21T12:52:06;102382.94;;;20.19
64916;BMP280;51427;-27.442;153.014;2022-08-21T12:54:42;102380.06;;;19.40
64916;BMP280;51427;-27.442;153.014;2022-08-21T12:57:18;102367.03;;;19.62
64916;BMP280;51427;-27.442;153.014;2022-08-21T12:59:45;102378.28;;;18.54
64916;BMP280;51427;-27.442;153.014;2022-08-21T13:02:19;102371.59;;;18.99
64916;BMP280;51427;-27.442;153.014;2022-08-21T13:04:49;102379.69;;;18.59
64916;BMP280;51427;-27.442;153.014;2022-08-21T13:07:22;102389.59;;;18.03
64916;BMP280;51427;-27.442;153.014;2022-08-21T13:09:58;102385.66;;;18.74
64916;BMP280;51427;-27.442;153.014;2022-08-21T13:12:27;102373.47;;;18.60
64916;BMP280;51427;-27.442;153.014;2022-08-21T13:15:00;102374.44;;;17.68
64916;BMP280;51427;-27.442;153.014;2022-08-21T13:17:31;102368.53;;;18.56
64916;BMP280;51427;-27.442;153.014;2022-08-21T13:20:05;102355.63;;;18.78
64916;BMP280;51427;-27.442;153.014;2022-08-21T13:22:41;102367.59;;;17.80
64916;BMP280;51427;-27.442;153.014;2022-08-21T13:25:15;102367.75;;;18.29
64916;BMP280;51427;-27.442;153.014;2022-08-21T13:27:45;102365.03;;;18.04
64916;BMP280;51427;-27.442;153.014;2022-08-21T13:30:23;102370.00;;;17.43
64916;BMP280;51427;-27.442;153.014;2022-08-21T13:32:57;102366.75;;;17.39
64916;BMP280;51427;-27.442;153.014;2022-08-21T13:35:30;102356.63;;;16.92
64916;BMP280;51427;-27.442;153.014;2022-08-21T13:37:59;102345.38;;;18.24
64916;BMP280;51427;-27.442;153.014;2022-08-21T13:40:37;102346.13;;;19.60
64916;BMP280;51427;-27.442;153.014;2022-08-21T13:43:14;102348.28;;;18.19
64916;BMP280;51427;-27.442;153.014;2022-08-21T13:45:47;102349.53;;;16.94
64916;BMP280;51427;-27.442;153.014;2022-08-21T13:48:15;102343.31;;;17.50
64916;BMP280;51427;-27.442;153.014;2022-08-21T13:50:43;102350.56;;;16.91
64916;BMP280;51427;-27.442;153.014;2022-08-21T13:56:41;102353.78;;;16.39
64916;BMP280;51427;-27.442;153.014;2022-08-21T13:59:10;102345.97;;;17.62
64916;BMP280;51427;-27.442;153.014;2022-08-21T14:01:49;102345.41;;;16.76
64916;BMP280;51427;-27.442;153.014;2022-08-21T14:04:23;102352.50;;;16.74
64916;BMP280;51427;-27.442;153.014;2022-08-21T14:06:51;102350.00;;;17.94
64916;BMP280;51427;-27.442;153.014;2022-08-21T14:09:42;102347.56;;;18.17
64916;BMP280;51427;-27.442;153.014;2022-08-21T14:12:58;102332.09;;;18.76
64916;BMP280;51427;-27.442;153.014;2022-08-21T14:15:06;102341.91;;;18.97
64916;BMP280;51427;-27.442;153.014;2022-08-21T14:17:36;102342.97;;;19.20
64916;BMP280;51427;-27.442;153.014;2022-08-21T14:20:06;102348.00;;;18.36
64916;BMP280;51427;-27.442;153.014;2022-08-21T14:22:39;102356.22;;;18.05
64916;BMP280;51427;-27.442;153.014;2022-08-21T14:25:13;102352.72;;;17.66
64916;BMP280;51427;-27.442;153.014;2022-08-21T14:30:33;102355.72;;;16.93
64916;BMP280;51427;-27.442;153.014;2022-08-21T14:33:03;102354.09;;;18.24
64916;BMP280;51427;-27.442;153.014;2022-08-21T14:35:31;102354.09;;;17.04
64916;BMP280;51427;-27.442;153.014;2022-08-21T14:37:58;102357.00;;;16.58
64916;BMP280;51427;-27.442;153.014;2022-08-21T14:40:26;102354.94;;;16.91
64916;BMP280;51427;-27.442;153.014;2022-08-21T14:42:53;102355.34;;;16.28
64916;BMP280;51427;-27.442;153.014;2022-08-21T14:45:26;102352.97;;;16.23
64916;BMP280;51427;-27.442;153.014;2022-08-21T14:47:55;102350.94;;;15.99
64916;BMP280;51427;-27.442;153.014;2022-08-21T14:50:22;102352.09;;;15.94
64916;BMP280;51427;-27.442;153.014;2022-08-21T14:52:49;102356.31;;;16.12
64916;BMP280;51427;-27.442;153.014;2022-08-21T14:55:18;102344.94;;;16.83
64916;BMP280;51427;-27.442;153.014;2022-08-21T14:57:47;102350.66;;;17.31
64916;BMP280;51427;-27.442;153.014;2022-08-21T15:00:18;102337.53;;;17.45
64916;BMP280;51427;-27.442;153.014;2022-08-21T15:02:46;102347.84;;;16.22
64916;BMP280;51427;-27.442;153.014;2022-08-21T15:05:13;102343.34;;;16.53
64916;BMP280;51427;-27.442;153.014;2022-08-21T15:07:40;102344.53;;;16.48
64916;BMP280;51427;-27.442;153.014;2022-08-21T15:10:08;102333.44;;;16.72
64916;BMP280;51427;-27.442;153.014;2022-08-21T15:12:36;102332.78;;;16.96
64916;BMP280;51427;-27.442;153.014;2022-08-21T15:15:05;102320.28;;;17.41
64916;BMP280;51427;-27.442;153.014;2022-08-21T15:17:32;102332.31;;;17.31
64916;BMP280;51427;-27.442;153.014;2022-08-21T15:20:00;102316.47;;;17.85
64916;BMP280;51427;-27.442;153.014;2022-08-21T15:22:27;102316.31;;;18.00
64916;BMP280;51427;-27.442;153.014;2022-08-21T15:24:53;102314.75;;;17.72